sensor_id;sensor_type;location;lat;lon;timestamp;P1;durP1;ratioP1;P2;durP2;ratioP2
11287;SDS011;5700;50.996;7.044;2022-11-15T00:02:41;5.65;;;2.75;;
11287;SDS011;5700;50.996;7.044;2022-11-15T00:05:43;5.00;;;2.67;;
11287;SDS011;5700;50.996;7.044;2022-11-15T00:08:45;7.40;;;2.72;;
11287;SDS011;5700;50.996;7.044;2022-11-15T00:11:47;7.13;;;3.38;;
11287;SDS011;5700;50.996;7.044;2022-11-15T00:14:48;7.10;;;3.22;;
11287;SDS011;5700;50.996;7.044;2022-11-15T00:17:49;5.88;;;3.00;;
11287;SDS011;5700;50.996;7.044;2022-11-15T00:20:51;7.35;;;3.00;;
11287;SDS011;5700;50.996;7.044;2022-11-15T00:23:54;6.45;;;3.13;;
11287;SDS011;5700;50.996;7.044;2022-11-15T00:26:55;6.25;;;3.00;;
11287;SDS011;5700;50.996;7.044;2022-11-15T00:29:56;7.43;;;3.53;;
11287;SDS011;5700;50.996;7.044;2022-11-15T00:33:00;9.13;;;3.75;;
11287;SDS011;5700;50.996;7.044;2022-11-15T00:36:03;8.05;;;3.28;;
11287;SDS011;5700;50.996;7.044;2022-11-15T00:39:07;6.22;;;3.55;;
11287;SDS011;5700;50.996;7.044;2022-11-15T00:42:09;8.60;;;4.15;;
11287;SDS011;5700;50.996;7.044;2022-11-15T00:45:10;10.23;;;4.07;;
11287;SDS011;5700;50.996;7.044;2022-11-15T00:48:11;9.32;;;3.80;;
11287;SDS011;5700;50.996;7.044;2022-11-15T00:51:13;8.27;;;3.53;;
11287;SDS011;5700;50.996;7.044;2022-11-15T00:54:15;7.88;;;3.42;;
11287;SDS011;5700;50.996;7.044;2022-11-15T00:57:17;8.55;;;3.65;;
11287;SDS011;5700;50.996;7.044;2022-11-15T01:00:18;8.30;;;4.40;;
11287;SDS011;5700;50.996;7.044;2022-11-15T01:03:20;8.77;;;3.80;;
11287;SDS011;5700;50.996;7.044;2022-11-15T01:06:21;6.82;;;3.40;;
11287;SDS011;5700;50.996;7.044;2022-11-15T01:09:24;6.90;;;3.42;;
11287;SDS011;5700;50.996;7.044;2022-11-15T01:12:25;12.38;;;4.50;;
11287;SDS011;5700;50.996;7.044;2022-11-15T01:15:26;7.72;;;3.72;;
11287;SDS011;5700;50.996;7.044;2022-11-15T01:18:28;7.07;;;3.75;;
11287;SDS011;5700;50.996;7.044;2022-11-15T01:21:29;8.73;;;4.07;;
11287;SDS011;5700;50.996;7.044;2022-11-15T01:24:32;6.85;;;4.05;;
11287;SDS011;5700;50.996;7.044;2022-11-15T01:27:33;6.97;;;3.90;;
11287;SDS011;5700;50.996;7.044;2022-11-15T01:30:35;9.10;;;4.20;;
11287;SDS011;5700;50.996;7.044;2022-11-15T01:33:36;9.25;;;3.92;;
11287;SDS011;5700;50.996;7.044;2022-11-15T01:36:38;6.13;;;3.40;;
11287;SDS011;5700;50.996;7.044;2022-11-15T01:39:40;6.40;;;2.90;;
11287;SDS011;5700;50.996;7.044;2022-11-15T01:42:42;7.93;;;3.53;;
11287;SDS011;5700;50.996;7.044;2022-11-15T01:45:43;6.15;;;2.97;;
11287;SDS011;5700;50.996;7.044;2022-11-15T01:48:47;5.25;;;3.10;;
11287;SDS011;5700;50.996;7.044;2022-11-15T01:51:48;5.97;;;2.80;;
11287;SDS011;5700;50.996;7.044;2022-11-15T01:54:53;7.40;;;2.97;;
11287;SDS011;5700;50.996;7.044;2022-11-15T01:57:57;6.20;;;3.17;;
11287;SDS011;5700;50.996;7.044;2022-11-15T02:00:59;5.22;;;2.63;;
11287;SDS011;5700;50.996;7.044;2022-11-15T02:04:02;7.07;;;3.28;;
11287;SDS011;5700;50.996;7.044;2022-11-15T02:07:06;6.72;;;2.85;;
11287;SDS011;5700;50.996;7.044;2022-11-15T02:10:12;7.95;;;3.05;;
11287;SDS011;5700;50.996;7.044;2022-11-15T02:13:17;6.68;;;3.28;;
11287;SDS011;5700;50.996;7.044;2022-11-15T02:16:25;5.18;;;2.97;;
11287;SDS011;5700;50.996;7.044;2022-11-15T02:23:00;4.53;;;2.08;;
11287;SDS011;5700;50.996;7.044;2022-11-15T02:26:17;9.05;;;2.92;;
11287;SDS011;5700;50.996;7.044;2022-11-15T02:29:34;7.40;;;2.90;;
11287;SDS011;5700;50.996;7.044;2022-11-15T02:32:45;6.55;;;3.17;;
11287;SDS011;5700;50.996;7.044;2022-11-15T02:35:50;8.60;;;3.05;;
11287;SDS011;5700;50.996;7.044;2022-11-15T02:38:59;4.90;;;2.40;;
11287;SDS011;5700;50.996;7.044;2022-11-15T02:42:06;5.28;;;2.70;;
11287;SDS011;5700;50.996;7.044;2022-11-15T02:45:31;5.88;;;3.08;;
11287;SDS011;5700;50.996;7.044;2022-11-15T02:48:36;4.60;;;2.45;;
11287;SDS011;5700;50.996;7.044;2022-11-15T02:51:38;3.92;;;2.30;;
11287;SDS011;5700;50.996;7.044;2022-11-15T02:54:39;4.40;;;2.55;;
11287;SDS011;5700;50.996;7.044;2022-11-15T02:57:43;4.45;;;2.30;;
11287;SDS011;5700;50.996;7.044;2022-11-15T03:00:47;4.85;;;2.00;;
11287;SDS011;5700;50.996;7.044;2022-11-15T03:03:58;4.93;;;2.20;;
11287;SDS011;5700;50.996;7.044;2022-11-15T03:07:05;5.80;;;2.85;;
11287;SDS011;5700;50.996;7.044;2022-11-15T03:10:12;5.97;;;2.50;;
11287;SDS011;5700;50.996;7.044;2022-11-15T03:13:21;4.43;;;2.40;;
11287;SDS011;5700;50.996;7.044;2022-11-15T03:16:26;6.28;;;2.90;;
11287;SDS011;5700;50.996;7.044;2022-11-15T03:19:31;5.20;;;2.70;;
11287;SDS011;5700;50.996;7.044;2022-11-15T03:22:35;5.88;;;2.50;;
11287;SDS011;5700;50.996;7.044;2022-11-15T03:25:40;4.93;;;2.63;;
11287;SDS011;5700;50.996;7.044;2022-11-15T03:28:42;4.43;;;2.05;;
11287;SDS011;5700;50.996;7.044;2022-11-15T03:31:47;5.78;;;2.13;;
11287;SDS011;5700;50.996;7.044;2022-11-15T03:34:55;8.18;;;2.83;;
11287;SDS011;5700;50.996;7.044;2022-11-15T03:37:59;4.43;;;2.67;;
11287;SDS011;5700;50.996;7.044;2022-11-15T03:41:07;5.10;;;2.30;;
11287;SDS011;5700;50.996;7.044;2022-11-15T03:44:14;6.55;;;2.47;;
11287;SDS011;5700;50.996;7.044;2022-11-15T03:47:18;5.55;;;2.90;;
11287;SDS011;5700;50.996;7.044;2022-11-15T03:50:23;4.30;;;2.50;;
11287;SDS011;5700;50.996;7.044;2022-11-15T03:53:25;7.28;;;2.88;;
11287;SDS011;5700;50.996;7.044;2022-11-15T03:56:26;5.72;;;2.53;;
11287;SDS011;5700;50.996;7.044;2022-11-15T03:59:28;4.60;;;2.40;;
11287;SDS011;5700;50.996;7.044;2022-11-15T04:02:29;9.98;;;2.90;;
11287;SDS011;5700;50.996;7.044;2022-11-15T04:05:32;6.28;;;2.83;;
11287;SDS011;5700;50.996;7.044;2022-11-15T04:08:33;5.20;;;2.67;;
11287;SDS011;5700;50.996;7.044;2022-11-15T04:11:35;4.07;;;2.33;;
11287;SDS011;5700;50.996;7.044;2022-11-15T04:14:36;5.90;;;2.95;;
11287;SDS011;5700;50.996;7.044;2022-11-15T04:17:57;4.30;;;2.28;;
11287;SDS011;5700;50.996;7.044;2022-11-15T04:21:00;5.88;;;2.88;;
11287;SDS011;5700;50.996;7.044;2022-11-15T04:24:15;6.88;;;2.90;;
11287;SDS011;5700;50.996;7.044;2022-11-15T04:27:17;5.53;;;2.88;;
11287;SDS011;5700;50.996;7.044;2022-11-15T04:30:18;5.97;;;3.13;;
11287;SDS011;5700;50.996;7.044;2022-11-15T04:33:19;5.97;;;3.15;;
11287;SDS011;5700;50.996;7.044;2022-11-15T04:36:22;5.57;;;2.92;;
11287;SDS011;5700;50.996;7.044;2022-11-15T04:39:38;5.88;;;2.90;;
11287;SDS011;5700;50.996;7.044;2022-11-15T04:42:40;7.15;;;2.90;;
11287;SDS011;5700;50.996;7.044;2022-11-15T04:45:41;6.47;;;2.70;;
11287;SDS011;5700;50.996;7.044;2022-11-15T04:48:43;5.97;;;2.85;;
11287;SDS011;5700;50.996;7.044;2022-11-15T04:51:46;10.25;;;3.05;;
11287;SDS011;5700;50.996;7.044;2022-11-15T04:54:47;5.93;;;2.92;;
11287;SDS011;5700;50.996;7.044;2022-11-15T04:57:56;5.53;;;3.05;;
11287;SDS011;5700;50.996;7.044;2022-11-15T05:01:05;5.45;;;2.90;;
11287;SDS011;5700;50.996;7.044;2022-11-15T05:04:07;7.40;;;2.95;;
11287;SDS011;5700;50.996;7.044;2022-11-15T05:07:24;4.65;;;2.60;;
11287;SDS011;5700;50.996;7.044;2022-11-15T05:10:25;8.05;;;2.92;;
11287;SDS011;5700;50.996;7.044;2022-11-15T05:13:27;5.28;;;2.88;;
11287;SDS011;5700;50.996;7.044;2022-11-15T05:16:28;4.75;;;2.55;;
11287;SDS011;5700;50.996;7.044;2022-11-15T05:19:29;3.63;;;2.30;;
11287;SDS011;5700;50.996;7.044;2022-11-15T05:22:32;5.80;;;2.53;;
11287;SDS011;5700;50.996;7.044;2022-11-15T05:25:35;5.80;;;2.85;;
11287;SDS011;5700;50.996;7.044;2022-11-15T05:28:37;4.13;;;2.10;;
11287;SDS011;5700;50.996;7.044;2022-11-15T05:31:39;4.68;;;2.17;;
11287;SDS011;5700;50.996;7.044;2022-11-15T05:34:41;4.35;;;2.10;;
11287;SDS011;5700;50.996;7.044;2022-11-15T05:37:44;4.88;;;3.17;;
11287;SDS011;5700;50.996;7.044;2022-11-15T05:40:45;3.40;;;2.17;;
11287;SDS011;5700;50.996;7.044;2022-11-15T05:43:47;3.55;;;2.00;;
11287;SDS011;5700;50.996;7.044;2022-11-15T05:46:50;3.42;;;1.95;;
11287;SDS011;5700;50.996;7.044;2022-11-15T05:49:53;3.53;;;2.05;;
11287;SDS011;5700;50.996;7.044;2022-11-15T05:52:56;3.47;;;2.10;;
11287;SDS011;5700;50.996;7.044;2022-11-15T05:55:57;4.13;;;2.13;;
11287;SDS011;5700;50.996;7.044;2022-11-15T05:58:59;4.97;;;2.22;;
11287;SDS011;5700;50.996;7.044;2022-11-15T06:02:00;4.78;;;2.20;;
11287;SDS011;5700;50.996;7.044;2022-11-15T06:05:01;2.88;;;1.60;;
11287;SDS011;5700;50.996;7.044;2022-11-15T06:08:04;3.72;;;1.75;;
11287;SDS011;5700;50.996;7.044;2022-11-15T06:11:06;3.22;;;1.95;;
11287;SDS011;5700;50.996;7.044;2022-11-15T06:14:07;3.97;;;1.92;;
11287;SDS011;5700;50.996;7.044;2022-11-15T06:17:10;3.90;;;1.90;;
11287;SDS011;5700;50.996;7.044;2022-11-15T06:20:11;3.50;;;1.88;;
11287;SDS011;5700;50.996;7.044;2022-11-15T06:23:14;5.15;;;1.77;;
11287;SDS011;5700;50.996;7.044;2022-11-15T06:26:15;3.08;;;1.73;;
11287;SDS011;5700;50.996;7.044;2022-11-15T06:29:17;4.78;;;1.80;;
11287;SDS011;5700;50.996;7.044;2022-11-15T06:32:18;2.13;;;1.30;;
11287;SDS011;5700;50.996;7.044;2022-11-15T06:35:19;1.98;;;1.20;;
11287;SDS011;5700;50.996;7.044;2022-11-15T06:38:22;4.05;;;1.60;;
11287;SDS011;5700;50.996;7.044;2022-11-15T06:41:23;3.08;;;1.33;;
11287;SDS011;5700;50.996;7.044;2022-11-15T06:44:25;2.78;;;1.38;;
11287;SDS011;5700;50.996;7.044;2022-11-15T06:47:26;3.30;;;1.48;;
11287;SDS011;5700;50.996;7.044;2022-11-15T06:50:28;3.22;;;1.75;;
11287;SDS011;5700;50.996;7.044;2022-11-15T06:53:30;2.70;;;1.45;;
11287;SDS011;5700;50.996;7.044;2022-11-15T06:56:33;2.85;;;1.58;;
11287;SDS011;5700;50.996;7.044;2022-11-15T06:59:34;3.05;;;2.05;;
11287;SDS011;5700;50.996;7.044;2022-11-15T07:02:36;2.50;;;2.08;;
11287;SDS011;5700;50.996;7.044;2022-11-15T07:05:37;4.35;;;1.80;;
11287;SDS011;5700;50.996;7.044;2022-11-15T07:08:40;3.58;;;1.52;;
11287;SDS011;5700;50.996;7.044;2022-11-15T07:11:42;2.35;;;1.50;;
11287;SDS011;5700;50.996;7.044;2022-11-15T07:14:43;2.53;;;1.60;;
11287;SDS011;5700;50.996;7.044;2022-11-15T07:17:44;3.25;;;1.58;;
11287;SDS011;5700;50.996;7.044;2022-11-15T07:20:46;2.20;;;1.30;;
11287;SDS011;5700;50.996;7.044;2022-11-15T07:23:49;3.05;;;1.55;;
11287;SDS011;5700;50.996;7.044;2022-11-15T07:26:50;3.05;;;1.33;;
11287;SDS011;5700;50.996;7.044;2022-11-15T07:29:51;2.38;;;1.40;;
11287;SDS011;5700;50.996;7.044;2022-11-15T07:32:53;5.38;;;1.95;;
11287;SDS011;5700;50.996;7.044;2022-11-15T07:35:58;3.67;;;1.73;;
11287;SDS011;5700;50.996;7.044;2022-11-15T07:39:02;3.13;;;1.70;;
11287;SDS011;5700;50.996;7.044;2022-11-15T07:42:04;1.40;;;1.20;;
11287;SDS011;5700;50.996;7.044;2022-11-15T07:45:19;2.00;;;1.10;;
11287;SDS011;5700;50.996;7.044;2022-11-15T07:48:21;3.28;;;1.50;;
11287;SDS011;5700;50.996;7.044;2022-11-15T07:51:22;7.22;;;3.35;;
11287;SDS011;5700;50.996;7.044;2022-11-15T07:54:25;3.67;;;1.65;;
11287;SDS011;5700;50.996;7.044;2022-11-15T07:57:26;4.53;;;1.77;;
11287;SDS011;5700;50.996;7.044;2022-11-15T08:00:28;3.47;;;1.65;;
11287;SDS011;5700;50.996;7.044;2022-11-15T08:03:29;4.25;;;1.48;;
11287;SDS011;5700;50.996;7.044;2022-11-15T08:06:31;1.70;;;1.10;;
11287;SDS011;5700;50.996;7.044;2022-11-15T08:09:33;3.75;;;1.50;;
11287;SDS011;5700;50.996;7.044;2022-11-15T08:12:35;3.78;;;1.73;;
11287;SDS011;5700;50.996;7.044;2022-11-15T08:15:36;2.97;;;1.50;;
11287;SDS011;5700;50.996;7.044;2022-11-15T08:18:38;4.55;;;1.40;;
11287;SDS011;5700;50.996;7.044;2022-11-15T08:21:39;2.25;;;1.15;;
11287;SDS011;5700;50.996;7.044;2022-11-15T08:24:42;1.25;;;0.85;;
11287;SDS011;5700;50.996;7.044;2022-11-15T08:27:43;5.18;;;1.35;;
11287;SDS011;5700;50.996;7.044;2022-11-15T08:30:45;2.70;;;1.33;;
11287;SDS011;5700;50.996;7.044;2022-11-15T08:33:46;3.95;;;1.40;;
11287;SDS011;5700;50.996;7.044;2022-11-15T08:36:47;1.63;;;1.00;;
11287;SDS011;5700;50.996;7.044;2022-11-15T08:39:50;1.88;;;1.00;;
11287;SDS011;5700;50.996;7.044;2022-11-15T08:42:51;1.00;;;0.70;;
11287;SDS011;5700;50.996;7.044;2022-11-15T08:45:55;1.63;;;0.98;;
11287;SDS011;5700;50.996;7.044;2022-11-15T08:48:56;2.47;;;1.20;;
11287;SDS011;5700;50.996;7.044;2022-11-15T08:51:58;1.40;;;1.02;;
11287;SDS011;5700;50.996;7.044;2022-11-15T08:55:00;2.47;;;1.33;;
11287;SDS011;5700;50.996;7.044;2022-11-15T08:58:02;2.35;;;1.35;;
11287;SDS011;5700;50.996;7.044;2022-11-15T09:01:03;2.30;;;1.10;;
11287;SDS011;5700;50.996;7.044;2022-11-15T09:04:05;1.55;;;0.88;;
11287;SDS011;5700;50.996;7.044;2022-11-15T09:07:07;2.60;;;0.93;;
11287;SDS011;5700;50.996;7.044;2022-11-15T09:10:09;3.08;;;0.93;;
11287;SDS011;5700;50.996;7.044;2022-11-15T09:13:11;1.67;;;1.10;;
11287;SDS011;5700;50.996;7.044;2022-11-15T09:16:13;1.50;;;0.85;;
11287;SDS011;5700;50.996;7.044;2022-11-15T09:19:15;1.75;;;0.90;;
11287;SDS011;5700;50.996;7.044;2022-11-15T09:22:16;2.00;;;0.82;;
11287;SDS011;5700;50.996;7.044;2022-11-15T09:25:19;1.65;;;0.95;;
11287;SDS011;5700;50.996;7.044;2022-11-15T09:28:20;1.52;;;0.93;;
11287;SDS011;5700;50.996;7.044;2022-11-15T09:31:22;1.60;;;0.88;;
11287;SDS011;5700;50.996;7.044;2022-11-15T09:34:23;1.42;;;0.70;;
11287;SDS011;5700;50.996;7.044;2022-11-15T09:37:26;1.00;;;0.70;;
11287;SDS011;5700;50.996;7.044;2022-11-15T09:40:29;1.58;;;0.60;;
11287;SDS011;5700;50.996;7.044;2022-11-15T09:43:32;0.68;;;0.50;;
11287;SDS011;5700;50.996;7.044;2022-11-15T09:46:41;1.25;;;0.60;;
11287;SDS011;5700;50.996;7.044;2022-11-15T09:49:56;2.20;;;0.77;;
11287;SDS011;5700;50.996;7.044;2022-11-15T09:52:59;1.25;;;0.82;;
11287;SDS011;5700;50.996;7.044;2022-11-15T09:56:03;2.05;;;0.70;;
11287;SDS011;5700;50.996;7.044;2022-11-15T09:59:12;1.30;;;0.75;;
11287;SDS011;5700;50.996;7.044;2022-11-15T10:02:27;0.68;;;0.60;;
11287;SDS011;5700;50.996;7.044;2022-11-15T10:05:36;1.15;;;0.63;;
11287;SDS011;5700;50.996;7.044;2022-11-15T10:08:43;1.58;;;0.40;;
11287;SDS011;5700;50.996;7.044;2022-11-15T10:11:50;1.17;;;0.50;;
11287;SDS011;5700;50.996;7.044;2022-11-15T10:15:00;1.88;;;0.85;;
11287;SDS011;5700;50.996;7.044;2022-11-15T10:18:06;0.98;;;0.63;;
11287;SDS011;5700;50.996;7.044;2022-11-15T10:21:12;0.95;;;0.55;;
11287;SDS011;5700;50.996;7.044;2022-11-15T10:24:19;1.10;;;0.73;;
11287;SDS011;5700;50.996;7.044;2022-11-15T10:27:23;0.30;;;0.30;;
11287;SDS011;5700;50.996;7.044;2022-11-15T10:30:30;1.08;;;0.73;;
11287;SDS011;5700;50.996;7.044;2022-11-15T10:33:33;1.52;;;0.65;;
11287;SDS011;5700;50.996;7.044;2022-11-15T10:36:36;1.75;;;0.55;;
11287;SDS011;5700;50.996;7.044;2022-11-15T10:39:37;1.35;;;0.47;;
11287;SDS011;5700;50.996;7.044;2022-11-15T10:42:40;0.50;;;0.40;;
11287;SDS011;5700;50.996;7.044;2022-11-15T10:45:41;0.63;;;0.50;;
11287;SDS011;5700;50.996;7.044;2022-11-15T10:48:43;0.40;;;0.40;;
11287;SDS011;5700;50.996;7.044;2022-11-15T10:51:46;0.25;;;0.25;;
11287;SDS011;5700;50.996;7.044;2022-11-15T10:54:49;2.58;;;0.68;;
11287;SDS011;5700;50.996;7.044;2022-11-15T10:57:55;0.57;;;0.30;;
11287;SDS011;5700;50.996;7.044;2022-11-15T11:01:04;0.32;;;0.30;;
11287;SDS011;5700;50.996;7.044;2022-11-15T11:04:10;2.55;;;0.60;;
11287;SDS011;5700;50.996;7.044;2022-11-15T11:07:19;0.30;;;0.30;;
11287;SDS011;5700;50.996;7.044;2022-11-15T11:10:22;0.47;;;0.38;;
11287;SDS011;5700;50.996;7.044;2022-11-15T11:13:26;1.83;;;0.60;;
11287;SDS011;5700;50.996;7.044;2022-11-15T11:16:41;1.05;;;0.30;;
11287;SDS011;5700;50.996;7.044;2022-11-15T11:19:46;0.30;;;0.30;;
11287;SDS011;5700;50.996;7.044;2022-11-15T11:22:57;0.32;;;0.30;;
11287;SDS011;5700;50.996;7.044;2022-11-15T11:26:08;0.93;;;0.30;;
11287;SDS011;5700;50.996;7.044;2022-11-15T11:29:22;0.52;;;0.32;;
11287;SDS011;5700;50.996;7.044;2022-11-15T11:32:37;0.90;;;0.57;;
11287;SDS011;5700;50.996;7.044;2022-11-15T11:35:49;0.70;;;0.30;;
11287;SDS011;5700;50.996;7.044;2022-11-15T11:38:56;1.60;;;0.55;;
11287;SDS011;5700;50.996;7.044;2022-11-15T11:42:01;1.00;;;0.30;;
11287;SDS011;5700;50.996;7.044;2022-11-15T11:45:10;1.27;;;0.30;;
11287;SDS011;5700;50.996;7.044;2022-11-15T11:48:21;3.70;;;0.50;;
11287;SDS011;5700;50.996;7.044;2022-11-15T11:51:28;0.30;;;0.30;;
11287;SDS011;5700;50.996;7.044;2022-11-15T11:54:33;2.47;;;0.40;;
11287;SDS011;5700;50.996;7.044;2022-11-15T11:57:39;1.55;;;0.40;;
11287;SDS011;5700;50.996;7.044;2022-11-15T12:00:46;0.55;;;0.32;;
11287;SDS011;5700;50.996;7.044;2022-11-15T12:03:51;0.95;;;0.50;;
11287;SDS011;5700;50.996;7.044;2022-11-15T12:06:57;1.92;;;0.40;;
11287;SDS011;5700;50.996;7.044;2022-11-15T12:10:03;0.57;;;0.40;;
11287;SDS011;5700;50.996;7.044;2022-11-15T12:13:07;1.88;;;0.68;;
11287;SDS011;5700;50.996;7.044;2022-11-15T12:16:13;0.90;;;0.30;;
11287;SDS011;5700;50.996;7.044;2022-11-15T12:19:17;1.45;;;0.43;;
11287;SDS011;5700;50.996;7.044;2022-11-15T12:22:19;0.82;;;0.50;;
11287;SDS011;5700;50.996;7.044;2022-11-15T12:25:23;2.85;;;0.70;;
11287;SDS011;5700;50.996;7.044;2022-11-15T12:28:31;3.78;;;0.55;;
11287;SDS011;5700;50.996;7.044;2022-11-15T12:31:39;1.05;;;0.40;;
11287;SDS011;5700;50.996;7.044;2022-11-15T12:34:42;0.70;;;0.52;;
11287;SDS011;5700;50.996;7.044;2022-11-15T12:37:47;2.13;;;0.30;;
11287;SDS011;5700;50.996;7.044;2022-11-15T12:47:53;0.28;;;0.28;;
11287;SDS011;5700;50.996;7.044;2022-11-15T12:50:58;1.45;;;0.32;;
11287;SDS011;5700;50.996;7.044;2022-11-15T12:54:03;0.10;;;0.10;;
11287;SDS011;5700;50.996;7.044;2022-11-15T12:57:40;0.65;;;0.28;;
11287;SDS011;5700;50.996;7.044;2022-11-15T13:00:42;1.65;;;0.35;;
11287;SDS011;5700;50.996;7.044;2022-11-15T13:07:54;1.35;;;0.40;;
11287;SDS011;5700;50.996;7.044;2022-11-15T13:10:52;0.55;;;0.45;;
11287;SDS011;5700;50.996;7.044;2022-11-15T13:13:53;0.43;;;0.40;;
11287;SDS011;5700;50.996;7.044;2022-11-15T13:16:57;0.65;;;0.40;;
11287;SDS011;5700;50.996;7.044;2022-11-15T13:20:08;2.33;;;0.55;;
11287;SDS011;5700;50.996;7.044;2022-11-15T13:23:18;1.13;;;0.45;;
11287;SDS011;5700;50.996;7.044;2022-11-15T13:26:22;3.45;;;0.60;;
11287;SDS011;5700;50.996;7.044;2022-11-15T13:29:24;1.00;;;0.40;;
11287;SDS011;5700;50.996;7.044;2022-11-15T13:32:26;3.25;;;0.80;;
11287;SDS011;5700;50.996;7.044;2022-11-15T13:35:29;1.70;;;0.73;;
11287;SDS011;5700;50.996;7.044;2022-11-15T13:38:33;1.50;;;0.90;;
11287;SDS011;5700;50.996;7.044;2022-11-15T13:41:36;3.20;;;0.90;;
11287;SDS011;5700;50.996;7.044;2022-11-15T13:44:54;1.27;;;0.70;;
11287;SDS011;5700;50.996;7.044;2022-11-15T13:47:57;1.67;;;0.90;;
11287;SDS011;5700;50.996;7.044;2022-11-15T13:51:00;1.67;;;0.88;;
11287;SDS011;5700;50.996;7.044;2022-11-15T13:54:02;1.48;;;0.82;;
11287;SDS011;5700;50.996;7.044;2022-11-15T13:57:10;0.77;;;0.63;;
11287;SDS011;5700;50.996;7.044;2022-11-15T14:00:30;3.38;;;1.10;;
11287;SDS011;5700;50.996;7.044;2022-11-15T14:03:37;6.68;;;0.90;;
11287;SDS011;5700;50.996;7.044;2022-11-15T14:06:46;1.40;;;0.85;;
11287;SDS011;5700;50.996;7.044;2022-11-15T14:09:49;2.45;;;0.90;;
11287;SDS011;5700;50.996;7.044;2022-11-15T14:12:51;1.70;;;0.80;;
11287;SDS011;5700;50.996;7.044;2022-11-15T14:15:52;1.35;;;1.00;;
11287;SDS011;5700;50.996;7.044;2022-11-15T14:18:54;3.35;;;1.00;;
11287;SDS011;5700;50.996;7.044;2022-11-15T14:25:15;2.05;;;0.82;;
11287;SDS011;5700;50.996;7.044;2022-11-15T14:28:28;2.63;;;1.08;;
11287;SDS011;5700;50.996;7.044;2022-11-15T14:31:30;1.83;;;0.73;;
11287;SDS011;5700;50.996;7.044;2022-11-15T14:34:32;2.15;;;0.93;;
11287;SDS011;5700;50.996;7.044;2022-11-15T14:37:34;1.98;;;1.08;;
11287;SDS011;5700;50.996;7.044;2022-11-15T14:40:36;1.83;;;0.88;;
11287;SDS011;5700;50.996;7.044;2022-11-15T14:43:38;3.75;;;0.90;;
11287;SDS011;5700;50.996;7.044;2022-11-15T14:46:39;1.23;;;0.90;;
11287;SDS011;5700;50.996;7.044;2022-11-15T14:49:40;1.42;;;0.95;;
11287;SDS011;5700;50.996;7.044;2022-11-15T14:52:44;1.45;;;0.88;;
11287;SDS011;5700;50.996;7.044;2022-11-15T14:55:46;1.30;;;0.80;;
11287;SDS011;5700;50.996;7.044;2022-11-15T14:58:47;1.73;;;0.73;;
11287;SDS011;5700;50.996;7.044;2022-11-15T15:01:49;2.90;;;0.82;;
11287;SDS011;5700;50.996;7.044;2022-11-15T15:04:50;2.00;;;1.00;;
11287;SDS011;5700;50.996;7.044;2022-11-15T15:07:53;4.85;;;0.85;;
11287;SDS011;5700;50.996;7.044;2022-11-15T15:10:54;2.05;;;0.82;;
11287;SDS011;5700;50.996;7.044;2022-11-15T15:13:56;1.92;;;0.70;;
11287;SDS011;5700;50.996;7.044;2022-11-15T15:17:00;2.45;;;0.90;;
11287;SDS011;5700;50.996;7.044;2022-11-15T15:20:01;3.22;;;0.80;;
11287;SDS011;5700;50.996;7.044;2022-11-15T15:23:04;3.42;;;1.00;;
11287;SDS011;5700;50.996;7.044;2022-11-15T15:26:06;3.72;;;0.77;;
11287;SDS011;5700;50.996;7.044;2022-11-15T15:29:08;0.93;;;0.80;;
11287;SDS011;5700;50.996;7.044;2022-11-15T15:32:09;5.95;;;1.48;;
11287;SDS011;5700;50.996;7.044;2022-11-15T15:35:12;1.40;;;0.90;;
11287;SDS011;5700;50.996;7.044;2022-11-15T15:38:15;3.38;;;1.20;;
11287;SDS011;5700;50.996;7.044;2022-11-15T15:41:16;8.60;;;1.60;;
11287;SDS011;5700;50.996;7.044;2022-11-15T15:44:18;3.13;;;0.98;;
11287;SDS011;5700;50.996;7.044;2022-11-15T15:47:19;1.88;;;0.88;;
11287;SDS011;5700;50.996;7.044;2022-11-15T15:50:22;1.75;;;0.98;;
11287;SDS011;5700;50.996;7.044;2022-11-15T15:53:26;1.25;;;0.70;;
11287;SDS011;5700;50.996;7.044;2022-11-15T15:56:27;1.65;;;0.95;;
11287;SDS011;5700;50.996;7.044;2022-11-15T15:59:29;4.15;;;1.08;;
11287;SDS011;5700;50.996;7.044;2022-11-15T16:02:30;2.35;;;1.10;;
11287;SDS011;5700;50.996;7.044;2022-11-15T16:05:32;3.63;;;1.20;;
11287;SDS011;5700;50.996;7.044;2022-11-15T16:08:34;2.92;;;1.10;;
11287;SDS011;5700;50.996;7.044;2022-11-15T16:11:37;2.75;;;1.10;;
11287;SDS011;5700;50.996;7.044;2022-11-15T16:14:38;2.28;;;1.13;;
11287;SDS011;5700;50.996;7.044;2022-11-15T16:17:40;4.78;;;1.20;;
11287;SDS011;5700;50.996;7.044;2022-11-15T16:20:45;1.83;;;1.02;;
11287;SDS011;5700;50.996;7.044;2022-11-15T16:23:50;2.38;;;1.42;;
11287;SDS011;5700;50.996;7.044;2022-11-15T16:26:52;2.20;;;1.20;;
11287;SDS011;5700;50.996;7.044;2022-11-15T16:29:53;1.67;;;1.13;;
11287;SDS011;5700;50.996;7.044;2022-11-15T16:32:55;3.30;;;1.27;;
11287;SDS011;5700;50.996;7.044;2022-11-15T16:35:56;2.35;;;1.20;;
11287;SDS011;5700;50.996;7.044;2022-11-15T16:38:59;2.25;;;1.20;;
11287;SDS011;5700;50.996;7.044;2022-11-15T16:42:03;3.88;;;1.65;;
11287;SDS011;5700;50.996;7.044;2022-11-15T16:45:05;3.10;;;1.30;;
11287;SDS011;5700;50.996;7.044;2022-11-15T16:48:14;3.80;;;0.90;;
11287;SDS011;5700;50.996;7.044;2022-11-15T16:51:21;2.05;;;1.08;;
11287;SDS011;5700;50.996;7.044;2022-11-15T16:54:25;1.85;;;1.05;;
11287;SDS011;5700;50.996;7.044;2022-11-15T16:57:26;2.28;;;1.00;;
11287;SDS011;5700;50.996;7.044;2022-11-15T17:00:27;3.05;;;1.00;;
11287;SDS011;5700;50.996;7.044;2022-11-15T17:03:29;11.15;;;7.28;;
11287;SDS011;5700;50.996;7.044;2022-11-15T17:06:40;6.28;;;3.13;;
11287;SDS011;5700;50.996;7.044;2022-11-15T17:09:43;4.22;;;1.60;;
11287;SDS011;5700;50.996;7.044;2022-11-15T17:12:45;4.45;;;2.45;;
11287;SDS011;5700;50.996;7.044;2022-11-15T17:15:46;2.75;;;1.55;;
11287;SDS011;5700;50.996;7.044;2022-11-15T17:18:49;2.13;;;1.02;;
11287;SDS011;5700;50.996;7.044;2022-11-15T17:21:51;3.65;;;2.38;;
11287;SDS011;5700;50.996;7.044;2022-11-15T17:24:54;3.17;;;1.00;;
11287;SDS011;5700;50.996;7.044;2022-11-15T17:27:55;4.20;;;2.00;;
11287;SDS011;5700;50.996;7.044;2022-11-15T17:30:57;2.25;;;1.42;;
11287;SDS011;5700;50.996;7.044;2022-11-15T17:33:59;1.65;;;1.10;;
11287;SDS011;5700;50.996;7.044;2022-11-15T17:37:00;4.55;;;1.83;;
11287;SDS011;5700;50.996;7.044;2022-11-15T17:40:03;2.78;;;2.30;;
11287;SDS011;5700;50.996;7.044;2022-11-15T17:43:05;3.05;;;1.70;;
11287;SDS011;5700;50.996;7.044;2022-11-15T17:46:07;2.38;;;1.40;;
11287;SDS011;5700;50.996;7.044;2022-11-15T17:49:11;3.28;;;1.40;;
11287;SDS011;5700;50.996;7.044;2022-11-15T17:52:13;4.65;;;1.33;;
11287;SDS011;5700;50.996;7.044;2022-11-15T17:55:15;3.28;;;1.35;;
11287;SDS011;5700;50.996;7.044;2022-11-15T17:58:17;2.58;;;1.30;;
11287;SDS011;5700;50.996;7.044;2022-11-15T18:01:20;3.22;;;1.30;;
11287;SDS011;5700;50.996;7.044;2022-11-15T18:04:22;4.35;;;1.60;;
11287;SDS011;5700;50.996;7.044;2022-11-15T18:07:27;5.70;;;1.73;;
11287;SDS011;5700;50.996;7.044;2022-11-15T18:10:29;2.58;;;1.50;;
11287;SDS011;5700;50.996;7.044;2022-11-15T18:13:31;2.20;;;1.38;;
11287;SDS011;5700;50.996;7.044;2022-11-15T18:16:34;4.13;;;1.50;;
11287;SDS011;5700;50.996;7.044;2022-11-15T18:19:36;3.13;;;1.90;;
11287;SDS011;5700;50.996;7.044;2022-11-15T18:22:38;4.70;;;2.10;;
11287;SDS011;5700;50.996;7.044;2022-11-15T18:25:40;5.03;;;2.00;;
11287;SDS011;5700;50.996;7.044;2022-11-15T18:28:43;2.33;;;1.55;;
11287;SDS011;5700;50.996;7.044;2022-11-15T18:31:45;3.20;;;1.77;;
11287;SDS011;5700;50.996;7.044;2022-11-15T18:34:49;3.40;;;1.98;;
11287;SDS011;5700;50.996;7.044;2022-11-15T18:37:50;3.53;;;1.98;;
11287;SDS011;5700;50.996;7.044;2022-11-15T18:40:53;5.93;;;2.55;;
11287;SDS011;5700;50.996;7.044;2022-11-15T18:43:56;3.45;;;1.67;;
11287;SDS011;5700;50.996;7.044;2022-11-15T18:46:57;4.88;;;2.17;;
11287;SDS011;5700;50.996;7.044;2022-11-15T18:49:59;4.18;;;2.60;;
11287;SDS011;5700;50.996;7.044;2022-11-15T18:53:00;5.90;;;2.40;;
11287;SDS011;5700;50.996;7.044;2022-11-15T18:56:04;5.43;;;2.38;;
11287;SDS011;5700;50.996;7.044;2022-11-15T18:59:06;6.57;;;3.30;;
11287;SDS011;5700;50.996;7.044;2022-11-15T19:02:09;4.25;;;2.65;;